Time;durP1;ratioP1;P1;durP2;ratioP2;P2;SDS_P1;SDS_P2;PMS_P1;PMS_P2;Temp;Humidity;BMP_temperature;BMP_pressure;BME280_temperature;BME280_humidity;BME280_pressure;Samples;Min_cycle;Max_cycle;Signal;HPM_P1;HPM_P2
2023/06/04 00:02:02;;;;;;;11.70;4.13;;;;;;;;;;4989351;28;20038;-73
2023/06/04 00:04:28;;;;;;;11.30;4.53;;;;;;;;;;4989410;28;20022;-72
2023/06/04 00:06:54;;;;;;;9.40;4.22;;;;;;;;;;4987377;28;20046;-72
2023/06/04 00:09:20;;;;;;;11.73;4.70;;;;;;;;;;4987311;28;20589;-72
2023/06/04 00:11:45;;;;;;;9.35;4.80;;;;;;;;;;4988219;28;20417;-72
2023/06/04 00:14:12;;;;;;;5.72;4.15;;;;;;;;;;4987864;28;20124;-72
2023/06/04 00:16:38;;;;;;;8.02;4.20;;;;;;;;;;5003385;28;20073;-72
2023/06/04 00:19:04;;;;;;;9.45;4.43;;;;;;;;;;5007793;28;20593;-72
2023/06/04 00:21:29;;;;;;;14.13;4.65;;;;;;;;;;5009418;28;20046;-71
2023/06/04 00:23:55;;;;;;;13.05;4.90;;;;;;;;;;5010587;28;20263;-73
2023/06/04 00:26:21;;;;;;;6.82;4.55;;;;;;;;;;5001584;28;20062;-72
2023/06/04 00:28:47;;;;;;;7.60;4.65;;;;;;;;;;4994177;28;20030;-73
2023/06/04 00:31:15;;;;;;;9.32;4.32;;;;;;;;;;4997212;28;20034;-72
2023/06/04 00:33:41;;;;;;;6.93;4.10;;;;;;;;;;4989506;28;20026;-73
2023/06/04 00:36:07;;;;;;;9.73;4.82;;;;;;;;;;4990819;28;20031;-73
2023/06/04 00:38:33;;;;;;;7.63;4.10;;;;;;;;;;4991191;28;20475;-74
2023/06/04 00:40:59;;;;;;;9.07;3.80;;;;;;;;;;4995318;28;20037;-73
2023/06/04 00:43:26;;;;;;;9.38;4.18;;;;;;;;;;4989706;28;20026;-73
2023/06/04 00:45:53;;;;;;;7.90;4.07;;;;;;;;;;4988916;28;20037;-73
2023/06/04 00:48:23;;;;;;;10.27;4.03;;;;;;;;;;4990152;28;20038;-74
2023/06/04 00:50:50;;;;;;;8.00;4.13;;;;;;;;;;4995712;28;20531;-73
2023/06/04 00:53:16;;;;;;;6.03;3.50;;;;;;;;;;4992367;28;20030;-72
2023/06/04 00:55:42;;;;;;;11.35;4.38;;;;;;;;;;4989414;28;20496;-72
2023/06/04 00:58:09;;;;;;;8.93;3.63;;;;;;;;;;4988881;28;20018;-72
2023/06/04 01:00:36;;;;;;;7.10;3.83;;;;;;;;;;4990198;28;20053;-72
2023/06/04 01:03:09;;;;;;;8.60;3.80;;;;;;;;;;4990923;28;20407;-72
2023/06/04 01:05:48;;;;;;;7.50;4.35;;;;;;;;;;4990583;28;20113;-73
2023/06/04 01:08:15;;;;;;;7.10;3.92;;;;;;;;;;4990669;28;20034;-73
2023/06/04 01:10:56;;;;;;;11.30;3.95;;;;;;;;;;4988549;28;20109;-73
2023/06/04 01:13:24;;;;;;;9.00;3.83;;;;;;;;;;4989217;28;20034;-72
2023/06/04 01:15:49;;;;;;;6.63;3.95;;;;;;;;;;4989295;28;20030;-72
2023/06/04 01:18:27;;;;;;;8.45;3.53;;;;;;;;;;4990235;28;20046;-72
2023/06/04 01:21:01;;;;;;;6.80;3.80;;;;;;;;;;4990064;28;20065;-72
2023/06/04 01:23:46;;;;;;;5.53;3.65;;;;;;;;;;4989417;28;20046;-73
2023/06/04 01:26:12;;;;;;;8.00;3.70;;;;;;;;;;4984015;28;20038;-72
2023/06/04 01:28:40;;;;;;;8.48;3.63;;;;;;;;;;4989415;28;20108;-73
2023/06/04 01:31:10;;;;;;;5.15;4.20;;;;;;;;;;4997689;28;20133;-72
2023/06/04 01:33:36;;;;;;;10.95;5.20;;;;;;;;;;4988856;28;20030;-73
2023/06/04 01:36:02;;;;;;;13.73;5.85;;;;;;;;;;4970351;28;20085;-73
2023/06/04 01:38:28;;;;;;;10.65;5.22;;;;;;;;;;4991570;28;20400;-73
2023/06/04 01:41:00;;;;;;;10.07;6.10;;;;;;;;;;4975865;28;20090;-73
2023/06/04 01:43:28;;;;;;;7.93;5.03;;;;;;;;;;4989154;28;20056;-73
2023/06/04 01:45:56;;;;;;;10.45;5.55;;;;;;;;;;4988368;28;20283;-74
2023/06/04 01:48:22;;;;;;;9.60;4.95;;;;;;;;;;4988101;28;20085;-73
2023/06/04 01:50:48;;;;;;;9.00;5.10;;;;;;;;;;4988278;28;20185;-72
2023/06/04 01:53:13;;;;;;;10.27;5.70;;;;;;;;;;4989997;28;20034;-73
2023/06/04 01:55:39;;;;;;;7.43;5.05;;;;;;;;;;4989894;28;20030;-72
2023/06/04 01:58:07;;;;;;;8.05;5.32;;;;;;;;;;4988333;28;20046;-73
2023/06/04 02:00:34;;;;;;;10.32;6.22;;;;;;;;;;4988498;28;20081;-73
2023/06/04 02:03:00;;;;;;;8.75;5.55;;;;;;;;;;4989564;28;20122;-72
2023/06/04 02:05:26;;;;;;;11.30;6.13;;;;;;;;;;4988389;28;20109;-72
2023/06/04 02:07:52;;;;;;;11.65;5.80;;;;;;;;;;4989019;28;20069;-73
2023/06/04 02:10:19;;;;;;;10.93;5.43;;;;;;;;;;4989853;28;20026;-72
2023/06/04 02:13:03;;;;;;;13.93;6.55;;;;;;;;;;4990215;28;20097;-73
2023/06/04 02:15:30;;;;;;;11.13;5.82;;;;;;;;;;4987772;28;20045;-73
2023/06/04 02:17:59;;;;;;;13.48;5.97;;;;;;;;;;4987544;28;20038;-73
2023/06/04 02:20:30;;;;;;;13.20;6.07;;;;;;;;;;4988245;28;20041;-72
2023/06/04 02:22:56;;;;;;;8.35;5.22;;;;;;;;;;4987998;28;20346;-73
2023/06/04 02:25:23;;;;;;;9.63;6.25;;;;;;;;;;4989484;28;20042;-72
2023/06/04 02:27:49;;;;;;;10.13;6.53;;;;;;;;;;4988968;28;20411;-71
2023/06/04 02:30:16;;;;;;;8.43;5.65;;;;;;;;;;4988000;28;20034;-72
2023/06/04 02:32:44;;;;;;;10.45;5.85;;;;;;;;;;4989761;28;20452;-72
2023/06/04 02:35:11;;;;;;;9.27;5.65;;;;;;;;;;4985315;28;20110;-73
2023/06/04 02:37:36;;;;;;;11.13;6.35;;;;;;;;;;4990499;28;20062;-73
2023/06/04 02:40:03;;;;;;;12.43;6.05;;;;;;;;;;4990939;28;20061;-73
2023/06/04 02:42:29;;;;;;;9.80;5.57;;;;;;;;;;4990016;28;20066;-73
2023/06/04 02:44:55;;;;;;;10.13;5.80;;;;;;;;;;4990319;28;20511;-72
2023/06/04 02:47:21;;;;;;;15.20;6.18;;;;;;;;;;4989765;28;20149;-73
2023/06/04 02:49:46;;;;;;;11.77;5.90;;;;;;;;;;4989698;28;20030;-73
2023/06/04 02:52:12;;;;;;;11.43;5.80;;;;;;;;;;5000124;28;20047;-73
2023/06/04 02:54:38;;;;;;;10.18;6.22;;;;;;;;;;5010012;28;20022;-72
2023/06/04 02:57:04;;;;;;;11.32;5.40;;;;;;;;;;5009806;28;20201;-73
2023/06/04 02:59:32;;;;;;;10.85;6.38;;;;;;;;;;4993350;28;20495;-73
2023/06/04 03:01:58;;;;;;;10.95;5.68;;;;;;;;;;5007797;28;20411;-72
2023/06/04 03:04:24;;;;;;;12.88;5.95;;;;;;;;;;4988570;28;20030;-72
2023/06/04 03:06:57;;;;;;;14.13;6.40;;;;;;;;;;4988879;28;20096;-72
2023/06/04 03:09:23;;;;;;;11.45;5.75;;;;;;;;;;4988490;28;20038;-73
2023/06/04 03:11:49;;;;;;;9.02;5.72;;;;;;;;;;4991270;28;20037;-73
2023/06/04 03:14:16;;;;;;;11.27;5.70;;;;;;;;;;4991187;28;20527;-72
2023/06/04 03:16:42;;;;;;;7.97;5.03;;;;;;;;;;4991255;28;20034;-73
2023/06/04 03:19:08;;;;;;;8.98;5.72;;;;;;;;;;4990789;28;20515;-73
2023/06/04 03:21:34;;;;;;;10.05;5.55;;;;;;;;;;4991320;28;20022;-73
2023/06/04 03:24:00;;;;;;;12.98;6.53;;;;;;;;;;4990996;28;20072;-73
2023/06/04 03:26:26;;;;;;;10.85;6.47;;;;;;;;;;4973548;28;20124;-73
2023/06/04 03:28:52;;;;;;;8.95;6.53;;;;;;;;;;4990593;28;20500;-72
2023/06/04 03:31:19;;;;;;;10.88;6.55;;;;;;;;;;4989458;28;20044;-73
2023/06/04 03:33:45;;;;;;;12.57;6.15;;;;;;;;;;4989867;28;20404;-73
2023/06/04 03:36:10;;;;;;;11.55;6.55;;;;;;;;;;4989403;28;20034;-73
2023/06/04 03:38:36;;;;;;;8.90;6.15;;;;;;;;;;4990393;28;20049;-73
2023/06/04 03:41:02;;;;;;;9.50;6.50;;;;;;;;;;4973543;28;20396;-73
2023/06/04 03:43:28;;;;;;;13.68;6.05;;;;;;;;;;4989490;28;20023;-73
2023/06/04 03:45:59;;;;;;;11.02;5.95;;;;;;;;;;4989538;28;20133;-73
2023/06/04 03:48:25;;;;;;;8.93;6.25;;;;;;;;;;4989288;28;20432;-72
2023/06/04 03:50:50;;;;;;;9.73;6.82;;;;;;;;;;4990881;28;20033;-73
2023/06/04 03:53:16;;;;;;;12.43;6.47;;;;;;;;;;4989321;28;20034;-73
2023/06/04 03:55:43;;;;;;;8.65;6.28;;;;;;;;;;4989422;28;20480;-72
2023/06/04 03:58:11;;;;;;;9.68;5.45;;;;;;;;;;4989067;28;20030;-73
2023/06/04 04:00:39;;;;;;;8.60;5.43;;;;;;;;;;4988860;28;20037;-73
2023/06/04 04:03:07;;;;;;;10.38;5.97;;;;;;;;;;4989050;28;20158;-73
2023/06/04 04:05:33;;;;;;;10.82;5.40;;;;;;;;;;4990468;28;20184;-73
2023/06/04 04:08:00;;;;;;;9.38;5.15;;;;;;;;;;4988675;28;20420;-73
2023/06/04 04:10:29;;;;;;;7.85;5.63;;;;;;;;;;4989413;28;20069;-73
2023/06/04 04:12:57;;;;;;;7.20;5.03;;;;;;;;;;4972999;28;20548;-73
2023/06/04 04:15:24;;;;;;;10.85;5.25;;;;;;;;;;4989053;28;20026;-73
2023/06/04 04:17:52;;;;;;;8.05;4.55;;;;;;;;;;4988819;28;20455;-73
2023/06/04 04:20:18;;;;;;;10.32;5.20;;;;;;;;;;4989169;28;20130;-73
2023/06/04 04:22:50;;;;;;;7.75;4.55;;;;;;;;;;4988863;28;20061;-72
2023/06/04 04:25:16;;;;;;;18.08;5.45;;;;;;;;;;4988981;28;20038;-73
2023/06/04 04:27:42;;;;;;;7.68;4.63;;;;;;;;;;4989068;28;20026;-72
2023/06/04 04:30:12;;;;;;;5.93;4.38;;;;;;;;;;4988918;28;20478;-72
2023/06/04 04:32:48;;;;;;;9.15;4.93;;;;;;;;;;4990468;28;20125;-73
2023/06/04 04:35:18;;;;;;;7.32;4.50;;;;;;;;;;4990196;28;20035;-72
2023/06/04 04:37:45;;;;;;;6.20;4.88;;;;;;;;;;4990291;28;20026;-73
2023/06/04 04:40:14;;;;;;;8.23;5.10;;;;;;;;;;4990418;28;20058;-73
2023/06/04 04:42:44;;;;;;;8.10;5.13;;;;;;;;;;4990323;28;20120;-73
2023/06/04 04:45:12;;;;;;;9.13;5.65;;;;;;;;;;4990264;28;20066;-73
2023/06/04 04:47:38;;;;;;;11.43;5.95;;;;;;;;;;4990352;28;20019;-72
2023/06/04 04:50:05;;;;;;;11.02;5.72;;;;;;;;;;4990265;28;20030;-72
2023/06/04 04:52:31;;;;;;;10.52;6.10;;;;;;;;;;4990435;28;20092;-72
2023/06/04 04:54:58;;;;;;;10.43;7.55;;;;;;;;;;4990206;28;20039;-71
2023/06/04 04:57:27;;;;;;;10.07;5.90;;;;;;;;;;4990358;28;20536;-73
2023/06/04 04:59:54;;;;;;;8.88;5.63;;;;;;;;;;4972210;28;20089;-73
2023/06/04 05:02:20;;;;;;;8.93;5.40;;;;;;;;;;4993254;28;20435;-73
2023/06/04 05:04:47;;;;;;;11.00;5.78;;;;;;;;;;4988102;28;20085;-72
2023/06/04 05:07:15;;;;;;;10.82;6.65;;;;;;;;;;4990741;28;20059;-72
2023/06/04 05:09:41;;;;;;;8.75;5.10;;;;;;;;;;4987473;28;20043;-72
2023/06/04 05:12:08;;;;;;;7.57;5.47;;;;;;;;;;4989579;28;20334;-72
2023/06/04 05:14:37;;;;;;;9.73;5.22;;;;;;;;;;4990198;28;20042;-72
2023/06/04 05:17:04;;;;;;;8.10;5.95;;;;;;;;;;4992171;28;20400;-73
2023/06/04 05:19:32;;;;;;;9.48;5.80;;;;;;;;;;4990080;28;20034;-72
2023/06/04 05:22:00;;;;;;;11.13;5.57;;;;;;;;;;4990382;28;20029;-73
2023/06/04 05:24:28;;;;;;;7.97;5.38;;;;;;;;;;4990840;28;20042;-72
2023/06/04 05:26:57;;;;;;;8.45;5.82;;;;;;;;;;4990887;28;20026;-73
2023/06/04 05:29:24;;;;;;;9.40;6.03;;;;;;;;;;5010536;28;20029;-73
2023/06/04 05:31:50;;;;;;;7.22;5.22;;;;;;;;;;4995510;28;20081;-72
2023/06/04 05:34:19;;;;;;;7.28;4.53;;;;;;;;;;4993295;28;20031;-72
2023/06/04 05:36:46;;;;;;;7.85;4.78;;;;;;;;;;4993150;28;20030;-72
2023/06/04 05:39:13;;;;;;;7.07;4.38;;;;;;;;;;5010599;28;20421;-73
2023/06/04 05:42:02;;;;;;;5.75;4.05;;;;;;;;;;5013703;28;20030;-73
2023/06/04 05:44:28;;;;;;;7.93;4.80;;;;;;;;;;5012689;28;20050;-73
2023/06/04 05:46:55;;;;;;;7.90;5.03;;;;;;;;;;5013979;28;20026;-72
2023/06/04 05:49:24;;;;;;;10.65;4.65;;;;;;;;;;5011770;28;20093;-72
2023/06/04 05:51:52;;;;;;;7.00;3.95;;;;;;;;;;5012874;28;20042;-73
2023/06/04 05:54:17;;;;;;;5.72;3.92;;;;;;;;;;5008668;28;20060;-72
2023/06/04 05:56:44;;;;;;;7.03;4.22;;;;;;;;;;4990734;28;20546;-72
2023/06/04 05:59:10;;;;;;;5.22;3.78;;;;;;;;;;4989563;28;20034;-73
2023/06/04 06:01:36;;;;;;;6.97;4.15;;;;;;;;;;4992849;28;20119;-73
2023/06/04 06:04:02;;;;;;;7.90;4.20;;;;;;;;;;4992165;28;20026;-74
2023/06/04 06:06:29;;;;;;;9.68;4.15;;;;;;;;;;4990306;28;20037;-72
2023/06/04 06:08:55;;;;;;;7.20;3.92;;;;;;;;;;4990274;28;20092;-72
2023/06/04 06:11:22;;;;;;;7.45;4.05;;;;;;;;;;4974776;28;20575;-72
2023/06/04 06:13:48;;;;;;;11.68;4.68;;;;;;;;;;4991580;28;20030;-72
2023/06/04 06:16:16;;;;;;;6.75;3.50;;;;;;;;;;4990994;28;20516;-72
2023/06/04 06:18:42;;;;;;;8.50;4.43;;;;;;;;;;4989013;28;20488;-73
2023/06/04 06:21:08;;;;;;;4.63;3.80;;;;;;;;;;4990433;28;20046;-72
2023/06/04 06:23:34;;;;;;;5.22;3.85;;;;;;;;;;4990396;28;20026;-72
2023/06/04 06:26:07;;;;;;;6.85;4.05;;;;;;;;;;4989839;28;20034;-72
2023/06/04 06:28:37;;;;;;;7.03;4.13;;;;;;;;;;4991877;28;20041;-72
2023/06/04 06:31:04;;;;;;;7.60;4.60;;;;;;;;;;4989211;28;20059;-72
2023/06/04 06:33:31;;;;;;;6.93;3.45;;;;;;;;;;4991572;28;20041;-72
2023/06/04 06:35:59;;;;;;;7.28;3.92;;;;;;;;;;4991660;28;20106;-72
2023/06/04 06:38:26;;;;;;;7.57;4.30;;;;;;;;;;4992341;28;20552;-72
2023/06/04 06:40:52;;;;;;;8.05;3.92;;;;;;;;;;4988940;28;20031;-72
2023/06/04 06:43:18;;;;;;;6.50;3.75;;;;;;;;;;4992433;28;20028;-72
2023/06/04 06:45:44;;;;;;;5.70;4.28;;;;;;;;;;4992694;28;20094;-71
2023/06/04 06:48:09;;;;;;;8.80;4.07;;;;;;;;;;4990759;28;20030;-72
2023/06/04 06:50:35;;;;;;;7.28;4.10;;;;;;;;;;4992156;28;20033;-72
2023/06/04 06:53:04;;;;;;;8.80;4.97;;;;;;;;;;4992176;28;20045;-72
2023/06/04 06:55:30;;;;;;;9.88;4.50;;;;;;;;;;4990643;28;20021;-72
2023/06/04 06:57:56;;;;;;;6.80;4.35;;;;;;;;;;4990911;28;20034;-72
2023/06/04 07:00:22;;;;;;;8.15;4.25;;;;;;;;;;4990939;28;20053;-72
2023/06/04 07:02:48;;;;;;;6.35;4.30;;;;;;;;;;4988467;28;20122;-72
2023/06/04 07:05:16;;;;;;;7.03;3.80;;;;;;;;;;4975115;28;20113;-72
2023/06/04 07:07:43;;;;;;;8.00;3.78;;;;;;;;;;4991191;28;20035;-72
2023/06/04 07:10:09;;;;;;;8.43;4.50;;;;;;;;;;4991269;28;20573;-72
2023/06/04 07:12:35;;;;;;;8.95;4.22;;;;;;;;;;4990639;28;20556;-72
2023/06/04 07:15:01;;;;;;;7.22;4.35;;;;;;;;;;4991080;28;20125;-72
2023/06/04 07:17:27;;;;;;;7.22;4.40;;;;;;;;;;4992019;28;20030;-72
2023/06/04 07:19:54;;;;;;;5.63;3.60;;;;;;;;;;4992315;28;20093;-72
2023/06/04 07:22:21;;;;;;;9.13;4.53;;;;;;;;;;4991603;28;20084;-72
2023/06/04 07:24:46;;;;;;;6.40;4.15;;;;;;;;;;4992541;28;20014;-72
2023/06/04 07:27:13;;;;;;;5.90;3.95;;;;;;;;;;4988273;28;20483;-72
2023/06/04 07:29:39;;;;;;;5.90;3.67;;;;;;;;;;4991269;28;20022;-72
2023/06/04 07:32:06;;;;;;;4.47;3.20;;;;;;;;;;4992368;28;20423;-71
2023/06/04 07:34:32;;;;;;;5.50;3.53;;;;;;;;;;4990522;28;20026;-72
2023/06/04 07:36:58;;;;;;;5.45;3.38;;;;;;;;;;4992387;28;20022;-71
2023/06/04 07:39:23;;;;;;;6.18;3.78;;;;;;;;;;4992189;28;20387;-72
2023/06/04 07:41:51;;;;;;;7.18;3.35;;;;;;;;;;4984118;28;20034;-73
2023/06/04 07:44:16;;;;;;;7.90;3.75;;;;;;;;;;4997346;28;20507;-73
2023/06/04 07:46:43;;;;;;;5.30;3.08;;;;;;;;;;4995572;28;20237;-72
2023/06/04 07:49:09;;;;;;;5.50;3.28;;;;;;;;;;4995047;28;20026;-72
2023/06/04 07:51:35;;;;;;;5.47;3.47;;;;;;;;;;4996668;28;20046;-72
2023/06/04 07:54:01;;;;;;;5.75;3.08;;;;;;;;;;4996600;28;20030;-72
2023/06/04 07:56:27;;;;;;;4.45;2.90;;;;;;;;;;4991749;28;20498;-71
2023/06/04 07:58:53;;;;;;;4.90;2.97;;;;;;;;;;4997688;28;20041;-70
2023/06/04 08:01:19;;;;;;;4.43;3.15;;;;;;;;;;4994486;28;20042;-72
2023/06/04 08:03:45;;;;;;;7.68;3.03;;;;;;;;;;4990264;28;20054;-73
2023/06/04 08:06:14;;;;;;;6.95;3.08;;;;;;;;;;4991386;28;20045;-72
2023/06/04 08:08:48;;;;;;;5.82;2.90;;;;;;;;;;4991604;28;20034;-74
2023/06/04 08:11:15;;;;;;;5.30;3.10;;;;;;;;;;4992160;28;20041;-72
2023/06/04 08:13:41;;;;;;;5.32;3.00;;;;;;;;;;4991591;28;20026;-72
2023/06/04 08:16:09;;;;;;;8.48;2.92;;;;;;;;;;4991394;28;20125;-72
2023/06/04 08:18:41;;;;;;;4.30;2.70;;;;;;;;;;4988794;28;20027;-72
2023/06/04 08:21:10;;;;;;;3.70;2.72;;;;;;;;;;4988833;28;20038;-73
2023/06/04 08:23:36;;;;;;;5.28;2.70;;;;;;;;;;4990853;28;20022;-73
2023/06/04 08:26:02;;;;;;;4.03;2.80;;;;;;;;;;4990598;28;20061;-72
2023/06/04 08:28:27;;;;;;;5.13;2.92;;;;;;;;;;4989175;28;20029;-74
2023/06/04 08:30:53;;;;;;;4.68;3.05;;;;;;;;;;4991088;28;20062;-72
2023/06/04 08:33:19;;;;;;;4.65;2.88;;;;;;;;;;4989605;28;20420;-72
2023/06/04 08:35:45;;;;;;;4.63;3.05;;;;;;;;;;4990164;28;20077;-73
2023/06/04 08:38:10;;;;;;;5.25;3.00;;;;;;;;;;4988568;28;20027;-72
2023/06/04 08:40:36;;;;;;;4.20;3.10;;;;;;;;;;4988617;28;20088;-72
2023/06/04 08:43:02;;;;;;;7.00;2.90;;;;;;;;;;4990196;28;20034;-73
2023/06/04 08:45:32;;;;;;;5.70;2.58;;;;;;;;;;4990145;28;20515;-74
2023/06/04 08:48:00;;;;;;;4.30;2.92;;;;;;;;;;4990868;28;20030;-72
2023/06/04 08:50:26;;;;;;;5.30;3.25;;;;;;;;;;4989769;28;20117;-72
2023/06/04 08:52:57;;;;;;;5.20;3.25;;;;;;;;;;4994658;28;20045;-72
2023/06/04 08:55:24;;;;;;;6.07;3.00;;;;;;;;;;4994181;28;20030;-72
2023/06/04 08:57:51;;;;;;;5.72;3.17;;;;;;;;;;4994154;28;20036;-72
2023/06/04 09:00:18;;;;;;;4.32;2.90;;;;;;;;;;4994390;28;20097;-73
2023/06/04 09:02:46;;;;;;;4.15;2.80;;;;;;;;;;4976971;28;20033;-72
2023/06/04 09:05:19;;;;;;;6.00;2.88;;;;;;;;;;4994516;28;20034;-72
2023/06/04 09:07:46;;;;;;;6.00;2.95;;;;;;;;;;4994402;28;20386;-71
2023/06/04 09:10:17;;;;;;;5.88;3.38;;;;;;;;;;4995364;28;20369;-74
2023/06/04 09:12:46;;;;;;;7.13;3.45;;;;;;;;;;4993772;28;20046;-72
2023/06/04 09:15:12;;;;;;;7.45;3.85;;;;;;;;;;4992370;28;20076;-73
2023/06/04 09:17:38;;;;;;;6.05;3.20;;;;;;;;;;4991000;28;20042;-72
2023/06/04 09:20:08;;;;;;;4.60;3.00;;;;;;;;;;4993481;28;20102;-72
2023/06/04 09:22:38;;;;;;;9.52;3.20;;;;;;;;;;4992991;28;20064;-72
2023/06/04 09:25:07;;;;;;;4.60;3.22;;;;;;;;;;4994170;28;20034;-72
2023/06/04 09:27:40;;;;;;;4.47;3.65;;;;;;;;;;4993498;28;20036;-72
2023/06/04 09:30:08;;;;;;;6.18;3.85;;;;;;;;;;4993099;28;20464;-71
2023/06/04 09:32:34;;;;;;;5.22;4.05;;;;;;;;;;4991861;28;20037;-72
2023/06/04 09:35:15;;;;;;;6.35;4.78;;;;;;;;;;4994430;28;20030;-72
2023/06/04 09:37:55;;;;;;;6.63;5.05;;;;;;;;;;4994701;28;20030;-72
2023/06/04 09:40:21;;;;;;;10.75;3.60;;;;;;;;;;4994863;28;20400;-73
2023/06/04 09:42:54;;;;;;;10.07;7.00;;;;;;;;;;4994418;28;20117;-72
2023/06/04 09:45:32;;;;;;;5.43;3.30;;;;;;;;;;4994308;28;20558;-71
2023/06/04 09:47:59;;;;;;;5.57;3.35;;;;;;;;;;4992653;28;20753;-72
2023/06/04 09:50:33;;;;;;;5.53;3.15;;;;;;;;;;4994295;28;20361;-72
2023/06/04 09:52:59;;;;;;;5.13;3.10;;;;;;;;;;4994430;28;20045;-71
2023/06/04 09:55:25;;;;;;;7.03;3.13;;;;;;;;;;4993210;28;20026;-71
2023/06/04 09:57:52;;;;;;;8.48;4.53;;;;;;;;;;4993405;28;20037;-73
2023/06/04 10:00:20;;;;;;;7.53;3.50;;;;;;;;;;4994369;28;20580;-72
2023/06/04 10:02:47;;;;;;;5.07;3.50;;;;;;;;;;4994224;28;20050;-72
2023/06/04 10:05:14;;;;;;;7.15;3.20;;;;;;;;;;4993834;28;20034;-72
2023/06/04 10:07:43;;;;;;;5.70;3.97;;;;;;;;;;4994130;28;20403;-72
2023/06/04 10:10:13;;;;;;;4.28;2.88;;;;;;;;;;4993808;28;20480;-72
2023/06/04 10:12:40;;;;;;;4.72;3.50;;;;;;;;;;4993659;28;20034;-72
2023/06/04 10:15:12;;;;;;;7.38;3.42;;;;;;;;;;4993588;28;20035;-72
2023/06/04 10:17:39;;;;;;;6.68;3.03;;;;;;;;;;4993842;28;20044;-72
2023/06/04 10:20:08;;;;;;;6.60;3.60;;;;;;;;;;4993752;28;20105;-72
2023/06/04 10:22:35;;;;;;;6.38;3.10;;;;;;;;;;4992462;28;20061;-72
2023/06/04 10:25:03;;;;;;;4.43;3.20;;;;;;;;;;4993328;28;20032;-71
2023/06/04 10:27:31;;;;;;;4.25;3.30;;;;;;;;;;4993346;28;20041;-71
2023/06/04 10:29:58;;;;;;;8.38;4.30;;;;;;;;;;4993219;28;20022;-71
2023/06/04 10:32:30;;;;;;;8.55;3.25;;;;;;;;;;4993109;28;20400;-71
2023/06/04 10:34:57;;;;;;;10.25;5.05;;;;;;;;;;4993356;28;20544;-72
2023/06/04 10:37:26;;;;;;;7.35;3.08;;;;;;;;;;4993469;28;20034;-73
2023/06/04 10:39:54;;;;;;;6.45;3.33;;;;;;;;;;4993208;28;20037;-71
2023/06/04 10:42:21;;;;;;;8.70;4.55;;;;;;;;;;4993350;28;20034;-72
2023/06/04 10:44:54;;;;;;;4.53;3.25;;;;;;;;;;4993430;28;20037;-73
2023/06/04 10:47:27;;;;;;;5.07;2.78;;;;;;;;;;4993165;28;20396;-72
2023/06/04 10:49:53;;;;;;;;;;;;;;;;;;4993582;28;20038;-72
2023/06/04 10:52:20;;;;;;;3.67;2.67;;;;;;;;;;4993065;28;19917;-73
2023/06/04 10:54:53;;;;;;;5.03;3.63;;;;;;;;;;4975791;28;20108;-72
2023/06/04 10:57:19;;;;;;;10.18;4.93;;;;;;;;;;4988284;28;20540;-72
2023/06/04 10:59:58;;;;;;;4.78;2.75;;;;;;;;;;4992556;28;20349;-73
2023/06/04 11:02:25;;;;;;;7.00;3.33;;;;;;;;;;4991865;28;20248;-73
2023/06/04 11:05:09;;;;;;;7.25;3.13;;;;;;;;;;4991523;28;20098;-72
2023/06/04 11:07:45;;;;;;;3.95;2.72;;;;;;;;;;4993018;28;20109;-73
2023/06/04 11:10:12;;;;;;;5.43;3.47;;;;;;;;;;4983646;28;20038;-72
2023/06/04 11:12:45;;;;;;;15.27;11.20;;;;;;;;;;4992748;28;20021;-73
2023/06/04 11:15:11;;;;;;;5.30;2.60;;;;;;;;;;4992886;28;20072;-73
2023/06/04 11:17:37;;;;;;;4.93;2.78;;;;;;;;;;4992820;28;20018;-74
2023/06/04 11:20:06;;;;;;;6.93;2.90;;;;;;;;;;4992526;28;20465;-72
2023/06/04 11:22:33;;;;;;;6.43;3.65;;;;;;;;;;4992718;28;20468;-73
2023/06/04 11:25:02;;;;;;;4.97;2.88;;;;;;;;;;4991562;28;20092;-73
2023/06/04 11:27:33;;;;;;;4.47;2.85;;;;;;;;;;4992544;28;20027;-73
2023/06/04 11:29:59;;;;;;;7.50;3.25;;;;;;;;;;4991488;28;20120;-73
2023/06/04 11:32:25;;;;;;;5.50;2.90;;;;;;;;;;4993141;28;20030;-72
2023/06/04 11:35:03;;;;;;;4.30;2.70;;;;;;;;;;4992742;28;20030;-73
2023/06/04 11:37:32;;;;;;;3.85;2.70;;;;;;;;;;4992783;28;20384;-72
2023/06/04 11:39:58;;;;;;;5.05;2.80;;;;;;;;;;4992370;28;20053;-73
2023/06/04 11:42:25;;;;;;;4.65;3.45;;;;;;;;;;4992511;28;20070;-74
2023/06/04 11:44:58;;;;;;;7.80;3.22;;;;;;;;;;4991305;28;20026;-73
2023/06/04 11:47:24;;;;;;;3.63;2.67;;;;;;;;;;4993163;28;20101;-73
2023/06/04 11:49:56;;;;;;;7.85;3.40;;;;;;;;;;4992321;28;20097;-72
2023/06/04 11:52:23;;;;;;;5.60;2.55;;;;;;;;;;4992265;28;20487;-72
2023/06/04 11:54:49;;;;;;;4.40;3.05;;;;;;;;;;4992179;28;20075;-72
2023/06/04 11:57:16;;;;;;;3.35;2.42;;;;;;;;;;4992361;28;20042;-73
2023/06/04 11:59:42;;;;;;;3.60;2.33;;;;;;;;;;4991974;28;20109;-72
2023/06/04 12:02:08;;;;;;;4.93;2.25;;;;;;;;;;4992452;28;20579;-73
2023/06/04 12:04:34;;;;;;;6.53;2.85;;;;;;;;;;4992298;28;20484;-71
2023/06/04 12:07:02;;;;;;;4.55;2.95;;;;;;;;;;4992022;28;20088;-73
2023/06/04 12:09:37;;;;;;;4.57;2.70;;;;;;;;;;4992008;28;20026;-73
2023/06/04 12:12:05;;;;;;;5.10;2.65;;;;;;;;;;4991403;28;20045;-74
2023/06/04 12:14:31;;;;;;;6.85;3.15;;;;;;;;;;4992353;28;20033;-73
2023/06/04 12:17:01;;;;;;;8.45;3.17;;;;;;;;;;4990974;28;20035;-73
2023/06/04 12:19:27;;;;;;;4.55;3.17;;;;;;;;;;4991938;28;20037;-73
2023/06/04 12:22:05;;;;;;;3.70;2.90;;;;;;;;;;4996001;28;20034;-73
2023/06/04 12:24:52;;;;;;;4.25;2.72;;;;;;;;;;4996270;28;20057;-73
2023/06/04 12:27:19;;;;;;;4.57;2.80;;;;;;;;;;4996363;28;20480;-74
2023/06/04 12:30:00;;;;;;;9.90;3.17;;;;;;;;;;4996199;28;20022;-72
2023/06/04 12:32:27;;;;;;;3.88;2.75;;;;;;;;;;4995793;28;20484;-72
2023/06/04 12:34:55;;;;;;;5.88;2.80;;;;;;;;;;4994624;28;20114;-73
2023/06/04 12:37:22;;;;;;;4.40;2.85;;;;;;;;;;4995813;28;20030;-72
2023/06/04 12:39:48;;;;;;;4.13;2.80;;;;;;;;;;4995972;28;20026;-73
2023/06/04 12:42:14;;;;;;;5.25;2.70;;;;;;;;;;4978458;28;20408;-73
2023/06/04 12:44:40;;;;;;;4.85;2.70;;;;;;;;;;4995676;28;20050;-72
2023/06/04 12:47:09;;;;;;;8.63;2.90;;;;;;;;;;4995822;28;20069;-73
2023/06/04 12:49:37;;;;;;;6.38;3.10;;;;;;;;;;4995920;28;20441;-72
2023/06/04 12:52:03;;;;;;;5.85;3.00;;;;;;;;;;4994731;28;20042;-71
2023/06/04 12:54:29;;;;;;;3.80;3.00;;;;;;;;;;4995737;28;20030;-72
2023/06/04 12:56:56;;;;;;;4.45;2.90;;;;;;;;;;4995918;28;20040;-72
2023/06/04 12:59:23;;;;;;;4.18;2.83;;;;;;;;;;4995592;28;20468;-72
2023/06/04 13:01:49;;;;;;;5.10;2.70;;;;;;;;;;4995774;28;20045;-72
2023/06/04 13:04:15;;;;;;;6.03;3.17;;;;;;;;;;4995436;28;20066;-72
2023/06/04 13:06:41;;;;;;;6.63;2.80;;;;;;;;;;4995207;28;20065;-73
2023/06/04 13:09:08;;;;;;;4.72;2.63;;;;;;;;;;4995063;28;20177;-72
2023/06/04 13:11:43;;;;;;;4.63;2.78;;;;;;;;;;4995262;28;20041;-74
2023/06/04 13:14:10;;;;;;;3.88;2.75;;;;;;;;;;4995159;28;20519;-73
2023/06/04 13:16:37;;;;;;;4.85;2.85;;;;;;;;;;4995021;28;20029;-73
2023/06/04 13:19:03;;;;;;;5.53;2.90;;;;;;;;;;4994890;28;20514;-74
2023/06/04 13:21:29;;;;;;;4.47;2.90;;;;;;;;;;4993747;28;20030;-73
2023/06/04 13:23:56;;;;;;;5.30;3.13;;;;;;;;;;4994971;28;20034;-73
2023/06/04 13:26:22;;;;;;;5.22;3.08;;;;;;;;;;4994624;28;20034;-74
2023/06/04 13:28:48;;;;;;;5.45;2.67;;;;;;;;;;4994781;28;20049;-72
2023/06/04 13:31:14;;;;;;;5.90;3.00;;;;;;;;;;4994475;28;20026;-73
2023/06/04 13:33:41;;;;;;;5.18;3.10;;;;;;;;;;4993019;28;20041;-73
2023/06/04 13:36:07;;;;;;;5.03;2.97;;;;;;;;;;4994700;28;20022;-74
2023/06/04 13:38:32;;;;;;;5.22;3.03;;;;;;;;;;4994188;28;20038;-72
2023/06/04 13:40:58;;;;;;;4.88;2.90;;;;;;;;;;4995217;28;20097;-72
2023/06/04 13:43:24;;;;;;;4.30;2.90;;;;;;;;;;4994705;28;20034;-72
2023/06/04 13:45:50;;;;;;;7.00;3.60;;;;;;;;;;4994675;28;20026;-72
2023/06/04 13:48:15;;;;;;;6.03;2.97;;;;;;;;;;4994367;28;20035;-74
2023/06/04 13:50:43;;;;;;;5.82;3.00;;;;;;;;;;4994431;28;20026;-74
2023/06/04 13:53:09;;;;;;;6.88;2.67;;;;;;;;;;4991532;28;20096;-73
2023/06/04 13:55:35;;;;;;;5.80;3.40;;;;;;;;;;4985834;28;20018;-74
2023/06/04 13:58:01;;;;;;;4.40;2.50;;;;;;;;;;4993065;28;20042;-73
2023/06/04 14:00:27;;;;;;;6.63;2.80;;;;;;;;;;4994040;28;20019;-72
2023/06/04 14:02:54;;;;;;;6.80;2.80;;;;;;;;;;4993858;28;20062;-72
2023/06/04 14:05:21;;;;;;;5.47;2.60;;;;;;;;;;4994068;28;20022;-72
2023/06/04 14:07:46;;;;;;;4.38;3.17;;;;;;;;;;4993493;28;20026;-73
2023/06/04 14:10:12;;;;;;;5.80;2.67;;;;;;;;;;4993789;28;20157;-74
2023/06/04 14:12:43;;;;;;;4.82;2.80;;;;;;;;;;4993322;28;20081;-72
2023/06/04 14:15:14;;;;;;;5.90;2.47;;;;;;;;;;4993418;28;20112;-73
2023/06/04 14:17:40;;;;;;;4.13;2.90;;;;;;;;;;4991865;28;20109;-73
2023/06/04 14:20:07;;;;;;;5.55;2.95;;;;;;;;;;4993635;28;20132;-74
2023/06/04 14:22:37;;;;;;;6.13;2.90;;;;;;;;;;4993512;28;20133;-72
2023/06/04 14:25:07;;;;;;;4.35;2.47;;;;;;;;;;4993557;28;20034;-73
2023/06/04 14:27:35;;;;;;;6.38;3.15;;;;;;;;;;4993404;28;20102;-73
2023/06/04 14:30:04;;;;;;;6.47;2.85;;;;;;;;;;4993365;28;20022;-73
2023/06/04 14:32:30;;;;;;;10.35;3.42;;;;;;;;;;4991856;28;20442;-74
2023/06/04 14:34:57;;;;;;;7.43;2.90;;;;;;;;;;4991538;28;20018;-74
2023/06/04 14:37:33;;;;;;;4.97;2.55;;;;;;;;;;4989170;28;20034;-74
2023/06/04 14:39:59;;;;;;;9.57;3.28;;;;;;;;;;4988372;28;20030;-73
2023/06/04 14:42:24;;;;;;;5.15;3.22;;;;;;;;;;4989403;28;20026;-73
2023/06/04 14:44:50;;;;;;;5.53;3.00;;;;;;;;;;4990187;28;20092;-73